Del Norte — WDC2280 — position and weather

sailwx.info

Track history (hours):
 
Tides and Currents Weather Stations Pressure Air Temp Water Temp Dewpoint Dewpoint Depression Visibility Wind Speed Wind Dir Waves Ship Positions

Del Norte

Owner: Golden Gate Bridge,Hwy & Transportation District, Larkspur, CA. More information available from US FCC via Universal Licensing System and Coast Guard Vessel Documentation Center.

Last reported at 2017-Oct-18 15:00 UTC. Time now 2017-Oct-18 15:18 UTC.
Position N 37°52' W 122°27'.

Length 48 m.

Type: High speed craft. MMSI: 366990520.

Date/timePositionNaut miles runAvg speedWind from/ knotsBaromVisibWave heightAir tempDewpointWater temp
2017-Oct-18 15:00N 37°52' W 122°27'4 4.2
2017-Oct-18 14:01N 37°49' W 122°24'4 8.5
2017-Oct-18 13:30N 37°52' W 122°27'510.9
2017-Oct-18 13:00N 37°48' W 122°24'510.9
2017-Oct-18 12:30N 37°52' W 122°27'5 8.9
2017-Oct-18 11:59N 37°56' W 122°30'0 0.7
2017-Oct-18 11:28N 37°57' W 122°31'0 0.0
2017-Oct-18 04:03N 37°57' W 122°31'0 0.1
2017-Oct-18 04:00N 37°57' W 122°31'510.0
2017-Oct-18 03:30N 37°52' W 122°27'510.9
2017-Oct-18 03:00N 37°48' W 122°24'510.0
2017-Oct-18 02:30N 37°52' W 122°27'2 3.6
2017-Oct-18 02:01N 37°52' W 122°25'612.5
2017-Oct-18 01:30N 37°57' W 122°31'  
2017-Oct-14 04:07N 37°57' W 122°31'1 5.6
2017-Oct-14 03:59N 37°56' W 122°30'4 9.3
2017-Oct-14 03:31N 37°52' W 122°27'510.8
2017-Oct-14 03:00N 37°48' W 122°24'511.0
2017-Oct-14 02:31N 37°52' W 122°27'510.7
2017-Oct-14 02:00N 37°48' W 122°23'4 7.7
2017-Oct-14 01:30N 37°51' W 122°26'0 1.0
2017-Oct-14 01:01N 37°51' W 122°27'5 9.1
2017-Oct-14 00:30N 37°48' W 122°23'611.2
2017-Oct-14 00:00N 37°52' W 122°27'511.0
2017-Oct-13 23:31N 37°48' W 122°23'1 1.1
2017-Oct-13 23:00N 37°49' W 122°23'1020.1
2017-Oct-13 22:30N 37°57' W 122°31'0 0.0
2017-Oct-13 04:46N 37°57' W 122°30'0 0.2
2017-Oct-13 04:30N 37°57' W 122°30'5 9.7
2017-Oct-13 04:00N 37°52' W 122°27'0 0.0
2017-Oct-13 03:30N 37°52' W 122°27'510.9
2017-Oct-13 03:00N 37°48' W 122°24'511.0
2017-Oct-13 02:30N 37°52' W 122°27'510.5
2017-Oct-13 02:01N 37°48' W 122°23'4 7.6
2017-Oct-13 01:30N 37°51' W 122°27'0 0.9
2017-Oct-13 01:00N 37°51' W 122°27'4 9.0
2017-Oct-13 00:31N 37°48' W 122°23'611.0
2017-Oct-13 00:00N 37°52' W 122°27'510.3
2017-Oct-12 23:30N 37°48' W 122°24'0 0.9
2017-Oct-12 23:00N 37°48' W 122°23'1019.7
2017-Oct-12 22:30N 37°56' W 122°30'1 0.0
2017-Oct-12 04:54N 37°57' W 122°31'0 0.7
2017-Oct-12 04:30N 37°57' W 122°30'2 4.8
2017-Oct-12 04:01N 37°55' W 122°28'3 6.2
2017-Oct-12 03:30N 37°52' W 122°27'510.9
2017-Oct-12 03:00N 37°48' W 122°24'510.9
2017-Oct-12 02:30N 37°52' W 122°27'510.8
2017-Oct-12 02:01N 37°48' W 122°23'4 8.5
2017-Oct-12 01:31N 37°51' W 122°27'1 1.7
2017-Oct-12 01:01N 37°51' W 122°26'4 7.0
2017-Oct-12 00:30N 37°48' W 122°23'511.0
2017-Oct-12 00:01N 37°52' W 122°27'510.8
2017-Oct-11 23:31N 37°48' W 122°23'0 0.7
2017-Oct-11 23:01N 37°48' W 122°23'4 8.1
2017-Oct-11 22:31N 37°51' W 122°26'2 3.7
2017-Oct-11 22:00N 37°51' W 122°29'0 0.0
2017-Oct-11 21:30N 37°51' W 122°29'0 0.0
2017-Oct-11 21:00N 37°51' W 122°29'0 0.0
2017-Oct-11 20:30N 37°51' W 122°29'0 0.0
2017-Oct-11 20:00N 37°51' W 122°29'2 4.6
2017-Oct-11 19:30N 37°53' W 122°26'510.6
2017-Oct-11 19:00N 37°57' W 122°30'0 0.0
2017-Oct-11 18:30N 37°57' W 122°30'0 0.0
2017-Oct-11 18:00N 37°57' W 122°30'0 0.1
2017-Oct-11 17:30N 37°57' W 122°31'2 3.2
2017-Oct-11 17:01N 37°56' W 122°29'2 0.1
2017-Oct-11 00:00N 37°57' W 122°31'0 0.0
2017-Oct-10 23:30N 37°57' W 122°31'0 0.0
2017-Oct-10 23:00N 37°57' W 122°31'0 0.0
2017-Oct-10 22:30N 37°57' W 122°31'0 0.0
2017-Oct-10 22:00N 37°57' W 122°31'0 0.0
2017-Oct-10 21:30N 37°57' W 122°31'0 0.0
2017-Oct-10 21:00N 37°57' W 122°31'1021.1
2017-Oct-10 20:30N 37°48' W 122°23'4 7.4
2017-Oct-10 20:01N 37°51' W 122°25'713.8
2017-Oct-10 19:30N 37°57' W 122°31'1020.2
2017-Oct-10 19:00N 37°48' W 122°23'3 6.0
2017-Oct-10 18:30N 37°51' W 122°25'714.2
2017-Oct-10 18:00N 37°57' W 122°30'4 7.3
2017-Oct-10 17:31N 37°55' W 122°27'714.5
2017-Oct-10 17:00N 37°48' W 122°24'713.2
2017-Oct-10 16:30N 37°54' W 122°27'3 6.2
2017-Oct-10 16:00N 37°56' W 122°29'1019.1
2017-Oct-10 15:30N 37°48' W 122°24'1019.1
2017-Oct-10 15:00N 37°56' W 122°29'8 8.4
2017-Oct-10 14:01N 37°49' W 122°24'  
Track history (hours):
 
Tides and Currents Weather Stations Pressure Air Temp Water Temp Dewpoint Dewpoint Depression Visibility Wind Speed Wind Dir Waves Ship Positions

Del Norte

Owner: Golden Gate Bridge,Hwy & Transportation District, Larkspur, CA. More information available from US FCC via Universal Licensing System and Coast Guard Vessel Documentation Center.

Last reported at 2017-Oct-18 15:00 UTC. Time now 2017-Oct-18 15:18 UTC.
Position N 37°52' W 122°27'.

Length 48 m.

Type: High speed craft. MMSI: 366990520.

Date/timePositionNaut miles runAvg speedWind from/ knotsBaromVisibWave heightAir tempDewpointWater temp
2017-Oct-18 15:00N 37°52' W 122°27'4 4.2
2017-Oct-18 14:01N 37°49' W 122°24'4 8.5
2017-Oct-18 13:30N 37°52' W 122°27'510.9
2017-Oct-18 13:00N 37°48' W 122°24'510.9
2017-Oct-18 12:30N 37°52' W 122°27'5 8.9
2017-Oct-18 11:59N 37°56' W 122°30'0 0.7
2017-Oct-18 11:28N 37°57' W 122°31'0 0.0
2017-Oct-18 04:03N 37°57' W 122°31'0 0.1
2017-Oct-18 04:00N 37°57' W 122°31'510.0
2017-Oct-18 03:30N 37°52' W 122°27'510.9
2017-Oct-18 03:00N 37°48' W 122°24'510.0
2017-Oct-18 02:30N 37°52' W 122°27'2 3.6
2017-Oct-18 02:01N 37°52' W 122°25'612.5
2017-Oct-18 01:30N 37°57' W 122°31'  
2017-Oct-14 04:07N 37°57' W 122°31'1 5.6
2017-Oct-14 03:59N 37°56' W 122°30'4 9.3
2017-Oct-14 03:31N 37°52' W 122°27'510.8
2017-Oct-14 03:00N 37°48' W 122°24'511.0
2017-Oct-14 02:31N 37°52' W 122°27'510.7
2017-Oct-14 02:00N 37°48' W 122°23'4 7.7
2017-Oct-14 01:30N 37°51' W 122°26'0 1.0
2017-Oct-14 01:01N 37°51' W 122°27'5 9.1
2017-Oct-14 00:30N 37°48' W 122°23'611.2
2017-Oct-14 00:00N 37°52' W 122°27'511.0
2017-Oct-13 23:31N 37°48' W 122°23'1 1.1
2017-Oct-13 23:00N 37°49' W 122°23'1020.1
2017-Oct-13 22:30N 37°57' W 122°31'0 0.0
2017-Oct-13 04:46N 37°57' W 122°30'0 0.2
2017-Oct-13 04:30N 37°57' W 122°30'5 9.7
2017-Oct-13 04:00N 37°52' W 122°27'0 0.0
2017-Oct-13 03:30N 37°52' W 122°27'510.9
2017-Oct-13 03:00N 37°48' W 122°24'511.0
2017-Oct-13 02:30N 37°52' W 122°27'510.5
2017-Oct-13 02:01N 37°48' W 122°23'4 7.6
2017-Oct-13 01:30N 37°51' W 122°27'0 0.9
2017-Oct-13 01:00N 37°51' W 122°27'4 9.0
2017-Oct-13 00:31N 37°48' W 122°23'611.0
2017-Oct-13 00:00N 37°52' W 122°27'510.3
2017-Oct-12 23:30N 37°48' W 122°24'0 0.9
2017-Oct-12 23:00N 37°48' W 122°23'1019.7
2017-Oct-12 22:30N 37°56' W 122°30'1 0.0
2017-Oct-12 04:54N 37°57' W 122°31'0 0.7
2017-Oct-12 04:30N 37°57' W 122°30'2 4.8
2017-Oct-12 04:01N 37°55' W 122°28'3 6.2
2017-Oct-12 03:30N 37°52' W 122°27'510.9
2017-Oct-12 03:00N 37°48' W 122°24'510.9
2017-Oct-12 02:30N 37°52' W 122°27'510.8
2017-Oct-12 02:01N 37°48' W 122°23'4 8.5
2017-Oct-12 01:31N 37°51' W 122°27'1 1.7
2017-Oct-12 01:01N 37°51' W 122°26'4 7.0
2017-Oct-12 00:30N 37°48' W 122°23'511.0
2017-Oct-12 00:01N 37°52' W 122°27'510.8
2017-Oct-11 23:31N 37°48' W 122°23'0 0.7
2017-Oct-11 23:01N 37°48' W 122°23'4 8.1
2017-Oct-11 22:31N 37°51' W 122°26'2 3.7
2017-Oct-11 22:00N 37°51' W 122°29'0 0.0
2017-Oct-11 21:30N 37°51' W 122°29'0 0.0
2017-Oct-11 21:00N 37°51' W 122°29'0 0.0
2017-Oct-11 20:30N 37°51' W 122°29'0 0.0
2017-Oct-11 20:00N 37°51' W 122°29'2 4.6
2017-Oct-11 19:30N 37°53' W 122°26'510.6
2017-Oct-11 19:00N 37°57' W 122°30'0 0.0
2017-Oct-11 18:30N 37°57' W 122°30'0 0.0
2017-Oct-11 18:00N 37°57' W 122°30'0 0.1
2017-Oct-11 17:30N 37°57' W 122°31'2 3.2
2017-Oct-11 17:01N 37°56' W 122°29'2 0.1
2017-Oct-11 00:00N 37°57' W 122°31'0 0.0
2017-Oct-10 23:30N 37°57' W 122°31'0 0.0
2017-Oct-10 23:00N 37°57' W 122°31'0 0.0
2017-Oct-10 22:30N 37°57' W 122°31'0 0.0
2017-Oct-10 22:00N 37°57' W 122°31'0 0.0
2017-Oct-10 21:30N 37°57' W 122°31'0 0.0
2017-Oct-10 21:00N 37°57' W 122°31'1021.1
2017-Oct-10 20:30N 37°48' W 122°23'4 7.4
2017-Oct-10 20:01N 37°51' W 122°25'713.8
2017-Oct-10 19:30N 37°57' W 122°31'1020.2
2017-Oct-10 19:00N 37°48' W 122°23'3 6.0
2017-Oct-10 18:30N 37°51' W 122°25'714.2
2017-Oct-10 18:00N 37°57' W 122°30'4 7.3
2017-Oct-10 17:31N 37°55' W 122°27'714.5
2017-Oct-10 17:00N 37°48' W 122°24'713.2
2017-Oct-10 16:30N 37°54' W 122°27'3 6.2
2017-Oct-10 16:00N 37°56' W 122°29'1019.1
2017-Oct-10 15:30N 37°48' W 122°24'1019.1
2017-Oct-10 15:00N 37°56' W 122°29'8 8.4
2017-Oct-10 14:01N 37°49' W 122°24'  

Dump ship's entire track history